Eibergen, Netherlands
Current Conditions -  °F | °C
As of 11:25 PM on Tuesday 21 Oct 2014 (Local Time) from EHDL Reporting Station
Rain Showers Rain Showers  
Wind Chill: 41°   Ceiling: 4200
Heat Index: 46°   Visibility: 6mi
Dew Point: 43°   Wind: 12mph
Humidity: 87%   Direction: 280°W
Pressure: 29.71"   Gusts: NA
Location:  52.1°N, 6.65°E
Report Text: EHDL 212125Z AUTO 28010KT 9999 -SHRA FEW015TCU SCT031 BKN042 OVC046 08/06 Q1006 BLU
Loading
Personal Weather Stations






























Interactive Weather Map
Tropical Storm Tracking
New forecast layout! Learn more

10-Day Weather Forecast

Advertisements
Track Severe Weather on mobile